createdAt,value
2023-04-17T00:01:16.093Z,12.27
2023-04-17T00:03:45.052Z,12.21
2023-04-17T00:06:14.290Z,11.97
2023-04-17T00:08:43.727Z,12.34
2023-04-17T00:11:12.100Z,12.37
2023-04-17T00:13:40.022Z,12.18
2023-04-17T00:16:10.941Z,12.10
2023-04-17T00:18:42.128Z,12.41
2023-04-17T00:21:10.069Z,12.10
2023-04-17T00:23:37.981Z,12.19
2023-04-17T00:26:06.213Z,11.88
2023-04-17T00:28:34.137Z,11.80
2023-04-17T00:31:02.016Z,11.96
2023-04-17T00:33:31.896Z,12.01
2023-04-17T00:35:59.797Z,12.20
2023-04-17T00:38:27.789Z,11.81
2023-04-17T00:40:56.049Z,12.02
2023-04-17T00:43:23.978Z,11.89
2023-04-17T00:45:52.986Z,11.73
2023-04-17T00:48:24.232Z,11.79
2023-04-17T00:50:53.184Z,11.65
2023-04-17T00:53:21.580Z,11.89
2023-04-17T00:55:51.506Z,12.15
2023-04-17T00:58:19.543Z,12.25
2023-04-17T01:00:49.204Z,11.75
2023-04-17T01:03:17.525Z,11.77
2023-04-17T01:05:50.311Z,11.65
2023-04-17T01:08:19.577Z,11.77
2023-04-17T01:10:47.978Z,11.45
2023-04-17T01:13:15.914Z,11.66
2023-04-17T01:15:44.989Z,11.72
2023-04-17T01:18:13.259Z,11.85
2023-04-17T01:20:41.248Z,11.78
2023-04-17T01:23:09.732Z,11.38
2023-04-17T01:25:37.679Z,11.25
2023-04-17T01:28:05.876Z,11.49
2023-04-17T01:30:35.537Z,11.65
2023-04-17T01:33:03.810Z,11.83
2023-04-17T01:35:31.755Z,12.17
2023-04-17T01:38:00.082Z,11.58
2023-04-17T01:40:28.482Z,11.19
2023-04-17T01:42:56.400Z,11.22
2023-04-17T01:45:24.939Z,11.59
2023-04-17T01:47:52.997Z,11.41
2023-04-17T01:50:21.046Z,11.64
2023-04-17T01:52:49.394Z,11.97
2023-04-17T01:55:17.780Z,11.72
2023-04-17T01:57:45.727Z,11.51
2023-04-17T02:00:14.984Z,11.43
2023-04-17T02:02:44.270Z,11.22
2023-04-17T02:05:12.327Z,11.15
2023-04-17T02:07:40.269Z,10.97
2023-04-17T02:10:08.958Z,11.15
2023-04-17T02:12:37.672Z,11.60
2023-04-17T02:15:06.272Z,11.33
2023-04-17T02:17:34.575Z,10.92
2023-04-17T02:20:07.012Z,11.29
2023-04-17T02:22:35.158Z,11.22
2023-04-17T02:25:03.507Z,11.50
2023-04-17T02:27:31.476Z,11.34
2023-04-17T02:29:59.387Z,11.25
2023-04-17T02:32:28.715Z,11.18
2023-04-17T02:34:57.045Z,11.17
2023-04-17T02:37:25.177Z,11.39
2023-04-17T02:39:54.425Z,10.98
2023-04-17T02:42:22.297Z,11.32
2023-04-17T02:44:50.229Z,11.14
2023-04-17T02:47:18.583Z,11.34
2023-04-17T02:49:46.890Z,11.20
2023-04-17T02:52:14.840Z,11.19
2023-04-17T02:54:43.111Z,11.31
2023-04-17T02:57:11.591Z,11.22
2023-04-17T02:59:39.645Z,11.23
2023-04-17T03:02:08.715Z,11.53
2023-04-17T03:04:38.992Z,11.28
2023-04-17T03:07:07.256Z,11.38
2023-04-17T03:09:35.303Z,11.82
2023-04-17T03:12:04.759Z,11.64
2023-04-17T03:14:33.037Z,11.34
2023-04-17T03:17:01.297Z,11.42
2023-04-17T03:19:29.370Z,11.40
2023-04-17T03:21:57.647Z,11.39
2023-04-17T03:24:25.558Z,11.64
2023-04-17T03:26:54.193Z,12.22
2023-04-17T03:29:22.980Z,12.09
2023-04-17T03:31:51.138Z,11.90
2023-04-17T03:34:21.923Z,11.98
2023-04-17T03:36:50.702Z,11.68
2023-04-17T03:39:18.690Z,11.74
2023-04-17T03:41:46.736Z,11.93
2023-04-17T03:44:15.137Z,12.03
2023-04-17T03:46:43.312Z,12.37
2023-04-17T03:49:11.840Z,12.08
2023-04-17T03:51:42.781Z,11.94
2023-04-17T03:54:11.260Z,11.89
2023-04-17T03:56:39.886Z,11.39
2023-04-17T03:59:08.857Z,11.74
2023-04-17T04:01:38.912Z,11.51
2023-04-17T04:04:08.049Z,12.24
2023-04-17T04:06:37.924Z,12.16
2023-04-17T04:09:06.812Z,11.82
2023-04-17T04:11:35.071Z,11.76
2023-04-17T04:14:03.592Z,11.89
2023-04-17T04:16:31.657Z,11.81
2023-04-17T04:19:02.102Z,11.68
2023-04-17T04:21:30.701Z,11.97
2023-04-17T04:23:58.778Z,11.77
2023-04-17T04:26:27.476Z,11.61
2023-04-17T04:28:56.942Z,11.43
2023-04-17T04:31:29.866Z,11.61
2023-04-17T04:33:59.488Z,11.31
2023-04-17T04:36:30.413Z,11.04
2023-04-17T04:39:00.002Z,11.30
2023-04-17T04:41:30.219Z,11.48
2023-04-17T04:43:58.680Z,11.26
2023-04-17T04:46:28.612Z,11.41
2023-04-17T04:48:57.304Z,11.74
2023-04-17T04:51:27.081Z,11.54
2023-04-17T04:53:55.164Z,11.50
2023-04-17T04:56:23.351Z,11.52
2023-04-17T04:58:51.706Z,11.73
2023-04-17T05:01:19.992Z,12.07
2023-04-17T05:03:50.215Z,11.97
2023-04-17T05:06:20.004Z,12.11
2023-04-17T05:08:48.982Z,11.95
2023-04-17T05:11:16.964Z,12.14
2023-04-17T05:13:45.560Z,12.39
2023-04-17T05:16:13.865Z,12.36
2023-04-17T05:18:41.781Z,12.17
2023-04-17T05:21:10.480Z,12.33
2023-04-17T05:23:38.912Z,12.18
2023-04-17T05:26:07.588Z,12.06
2023-04-17T05:28:35.926Z,12.67
2023-04-17T05:31:04.012Z,12.32
2023-04-17T05:33:32.310Z,12.55
2023-04-17T05:36:01.157Z,12.58
2023-04-17T05:38:29.913Z,12.60
2023-04-17T05:40:57.885Z,12.66
2023-04-17T05:43:26.302Z,12.87
2023-04-17T05:45:54.858Z,13.25
2023-04-17T05:48:23.280Z,13.19
2023-04-17T05:50:52.497Z,13.22
2023-04-17T05:53:20.943Z,13.59
2023-04-17T05:55:49.247Z,13.23
2023-04-17T05:58:23.841Z,13.28
2023-04-17T06:00:53.887Z,13.67
2023-04-17T06:03:22.722Z,13.64
2023-04-17T06:05:51.637Z,13.78
2023-04-17T06:08:19.634Z,13.88
2023-04-17T06:10:50.422Z,14.34
2023-04-17T06:13:19.013Z,14.66
2023-04-17T06:15:47.586Z,15.38
2023-04-17T06:18:17.800Z,15.88
2023-04-17T06:20:46.316Z,16.00
2023-04-17T06:23:14.642Z,16.32
2023-04-17T06:25:43.036Z,16.41
2023-04-17T06:28:10.978Z,15.75
2023-04-17T06:30:39.319Z,15.73
2023-04-17T06:33:08.030Z,15.39
2023-04-17T06:35:37.950Z,14.87
2023-04-17T06:38:09.178Z,15.03
2023-04-17T06:40:37.265Z,15.40
2023-04-17T06:43:06.478Z,14.91
2023-04-17T06:45:38.564Z,14.80
2023-04-17T06:48:07.512Z,14.75
2023-04-17T06:50:35.981Z,14.95
2023-04-17T06:53:03.977Z,14.78
2023-04-17T06:55:32.220Z,14.91
2023-04-17T06:58:00.163Z,15.13
2023-04-17T07:00:28.307Z,15.02
2023-04-17T07:02:56.695Z,15.66
2023-04-17T07:05:25.151Z,15.77
2023-04-17T07:07:53.110Z,15.33
2023-04-17T07:10:21.447Z,15.44
2023-04-17T07:12:49.572Z,15.71
2023-04-17T07:15:18.038Z,15.70
2023-04-17T07:17:46.561Z,15.74
2023-04-17T07:20:14.672Z,16.06
2023-04-17T07:22:43.384Z,16.42
2023-04-17T07:25:11.730Z,16.55
2023-04-17T07:27:39.739Z,17.24
2023-04-17T07:30:08.498Z,17.87
2023-04-17T07:32:36.853Z,18.22
2023-04-17T07:35:05.198Z,18.54
2023-04-17T07:37:34.871Z,19.62
2023-04-17T07:40:05.022Z,20.54
2023-04-17T07:42:33.089Z,20.17
2023-04-17T07:45:00.950Z,20.64
2023-04-17T07:47:31.209Z,20.51
2023-04-17T07:49:59.255Z,19.57
2023-04-17T07:52:27.265Z,19.24
2023-04-17T07:54:56.649Z,20.63
2023-04-17T07:57:26.678Z,21.67
2023-04-17T07:59:54.777Z,20.12
2023-04-17T08:02:23.424Z,20.71
2023-04-17T08:04:52.513Z,21.48
2023-04-17T08:07:20.902Z,21.40
2023-04-17T08:09:51.187Z,21.58
2023-04-17T08:12:19.584Z,20.09
2023-04-17T08:14:47.691Z,21.05
2023-04-17T08:17:20.357Z,20.02
2023-04-17T08:19:54.310Z,20.08
2023-04-17T08:22:24.374Z,21.50
2023-04-17T08:24:58.107Z,22.07
2023-04-17T08:27:26.198Z,20.52
2023-04-17T08:29:54.539Z,20.45
2023-04-17T08:32:22.496Z,20.01
2023-04-17T08:34:50.467Z,20.89
2023-04-17T08:37:18.810Z,22.04
2023-04-17T08:39:46.864Z,22.91
2023-04-17T08:42:18.850Z,22.96
2023-04-17T08:44:47.512Z,23.18
2023-04-17T08:47:18.374Z,23.10
2023-04-17T08:49:47.520Z,24.11
2023-04-17T08:52:16.912Z,23.60
2023-04-17T08:54:44.909Z,23.63
2023-04-17T08:57:12.987Z,22.83
2023-04-17T08:59:43.957Z,21.37
2023-04-17T09:02:12.183Z,22.33
2023-04-17T09:04:45.014Z,23.67
2023-04-17T09:07:15.680Z,23.77
2023-04-17T09:09:54.928Z,23.54
2023-04-17T09:12:25.760Z,23.33
2023-04-17T09:14:53.821Z,23.02
2023-04-17T09:17:22.040Z,22.37
2023-04-17T09:20:12.362Z,22.68
2023-04-17T09:22:41.341Z,21.96
2023-04-17T09:25:23.425Z,22.09
2023-04-17T09:27:51.373Z,22.60
2023-04-17T09:30:19.819Z,21.71
2023-04-17T09:32:47.828Z,22.80
2023-04-17T09:35:25.970Z,22.65
2023-04-17T09:37:55.658Z,22.39
2023-04-17T09:40:25.498Z,22.64
2023-04-17T09:43:00.762Z,22.35
2023-04-17T09:45:35.895Z,21.39
2023-04-17T09:48:09.037Z,22.22
2023-04-17T09:50:38.832Z,21.62
2023-04-17T09:53:07.920Z,21.50
2023-04-17T09:55:38.357Z,21.63
2023-04-17T09:58:08.173Z,21.86
2023-04-17T10:00:38.162Z,22.63
2023-04-17T10:03:07.751Z,23.03
2023-04-17T10:05:36.126Z,22.66
2023-04-17T10:08:04.671Z,22.96
2023-04-17T10:10:34.335Z,22.33
2023-04-17T10:13:07.936Z,21.84
2023-04-17T10:15:38.192Z,21.92
2023-04-17T10:18:24.054Z,20.99
2023-04-17T10:20:54.109Z,22.61
2023-04-17T10:23:33.327Z,22.77
2023-04-17T10:26:25.135Z,22.83
2023-04-17T10:28:54.646Z,22.55
2023-04-17T10:31:25.824Z,22.86
2023-04-17T10:33:54.636Z,22.26
2023-04-17T10:36:40.980Z,22.32
2023-04-17T10:39:17.013Z,23.07
2023-04-17T10:42:03.584Z,22.76
2023-04-17T10:44:41.161Z,22.24
2023-04-17T10:47:18.536Z,22.07
2023-04-17T10:50:00.425Z,20.99
2023-04-17T10:52:35.279Z,21.81
2023-04-17T10:55:17.936Z,21.36
2023-04-17T10:58:05.172Z,21.18
2023-04-17T11:00:38.709Z,21.13
2023-04-17T11:03:07.586Z,21.65
2023-04-17T11:05:36.258Z,21.07
2023-04-17T11:08:04.210Z,20.92
2023-04-17T11:10:36.054Z,20.55
2023-04-17T11:13:04.381Z,20.41
2023-04-17T11:15:34.649Z,19.83
2023-04-17T11:18:03.937Z,20.20
2023-04-17T11:20:33.576Z,20.97
2023-04-17T11:23:06.301Z,20.41
2023-04-17T11:25:35.169Z,20.50
2023-04-17T11:28:07.174Z,20.42
2023-04-17T11:30:37.966Z,19.95
2023-04-17T11:33:08.039Z,20.68
2023-04-17T11:35:39.027Z,19.93
2023-04-17T11:38:21.714Z,20.51
2023-04-17T11:40:52.683Z,20.85
2023-04-17T11:43:22.145Z,20.10
2023-04-17T11:45:53.607Z,19.64
2023-04-17T11:48:23.450Z,19.83
2023-04-17T11:50:58.233Z,20.39
2023-04-17T11:53:26.290Z,20.66
2023-04-17T11:56:15.925Z,19.44
2023-04-17T11:58:52.677Z,19.90
2023-04-17T12:01:25.803Z,20.05
2023-04-17T12:03:55.650Z,19.66
2023-04-17T12:06:24.724Z,20.11
2023-04-17T12:08:55.800Z,19.86
2023-04-17T12:11:34.569Z,20.12
2023-04-17T12:14:03.900Z,20.95
2023-04-17T12:16:32.345Z,20.77
2023-04-17T12:19:00.465Z,19.59
2023-04-17T12:21:28.489Z,19.81
2023-04-17T12:23:56.718Z,20.43
2023-04-17T12:26:25.894Z,20.45
2023-04-17T12:28:53.863Z,21.13
2023-04-17T12:31:22.202Z,19.89
2023-04-17T12:33:50.336Z,19.74
2023-04-17T12:36:18.763Z,19.65
2023-04-17T12:38:47.599Z,19.82
2023-04-17T12:41:15.531Z,20.48
2023-04-17T12:43:43.436Z,21.47
2023-04-17T12:46:12.105Z,21.45
2023-04-17T12:48:40.057Z,20.44
2023-04-17T12:51:08.011Z,20.06
2023-04-17T12:53:36.472Z,20.21
2023-04-17T12:56:04.730Z,21.05
2023-04-17T12:58:33.192Z,20.53
2023-04-17T13:01:01.551Z,19.87
2023-04-17T13:03:29.860Z,21.23
2023-04-17T13:05:58.135Z,22.35
2023-04-17T13:08:26.420Z,22.77
2023-04-17T13:10:54.341Z,22.49
2023-04-17T13:13:22.302Z,22.38
2023-04-17T13:15:50.593Z,21.45
2023-04-17T13:18:18.482Z,21.68
2023-04-17T13:20:46.498Z,22.15
2023-04-17T13:23:14.784Z,22.17
2023-04-17T13:25:42.701Z,22.89
2023-04-17T13:28:11.243Z,22.90
2023-04-17T13:30:40.141Z,22.39
2023-04-17T13:33:08.296Z,21.90
2023-04-17T13:35:36.270Z,22.05
2023-04-17T13:38:05.038Z,21.48
2023-04-17T13:40:32.995Z,21.67
2023-04-17T13:43:00.966Z,21.86
2023-04-17T13:45:29.278Z,22.55
2023-04-17T13:47:57.447Z,22.24
2023-04-17T13:50:25.486Z,22.37
2023-04-17T13:52:53.749Z,22.83
2023-04-17T13:55:21.798Z,21.87
2023-04-17T13:57:51.254Z,21.23
2023-04-17T14:00:21.093Z,20.68
2023-04-17T14:02:49.755Z,20.82
2023-04-17T14:05:17.910Z,19.76
2023-04-17T14:07:45.869Z,19.62
2023-04-17T14:10:14.131Z,18.95
2023-04-17T14:12:42.145Z,19.08
2023-04-17T14:15:10.701Z,18.49
2023-04-17T14:17:43.392Z,18.25
2023-04-17T14:20:12.275Z,17.56
2023-04-17T14:22:42.617Z,17.32
2023-04-17T14:25:10.844Z,17.31
2023-04-17T14:27:38.920Z,17.01
2023-04-17T14:30:08.420Z,17.31
2023-04-17T14:32:38.627Z,17.19
2023-04-17T14:35:07.369Z,17.39
2023-04-17T14:37:35.887Z,17.08
2023-04-17T14:40:04.979Z,17.68
2023-04-17T14:42:40.812Z,17.55
2023-04-17T14:45:19.318Z,17.12
2023-04-17T14:47:47.284Z,17.39
2023-04-17T14:50:15.205Z,17.78
2023-04-17T14:52:43.428Z,17.34
2023-04-17T14:55:12.433Z,17.31
2023-04-17T14:57:40.478Z,17.09
2023-04-17T15:00:09.311Z,17.04
2023-04-17T15:02:39.354Z,17.25
2023-04-17T15:05:08.377Z,17.44
2023-04-17T15:07:36.887Z,17.58
2023-04-17T15:10:05.168Z,17.45
2023-04-17T15:12:33.119Z,17.45
2023-04-17T15:15:01.360Z,17.35
2023-04-17T15:17:29.329Z,17.50
2023-04-17T15:19:57.805Z,17.35
2023-04-17T15:22:27.123Z,17.06
2023-04-17T15:24:55.193Z,17.24
2023-04-17T15:27:23.487Z,17.43
2023-04-17T15:29:51.844Z,17.10
2023-04-17T15:32:19.959Z,17.03
2023-04-17T15:34:48.637Z,17.02
2023-04-17T15:37:16.976Z,17.02
2023-04-17T15:39:44.999Z,16.65
2023-04-17T15:42:12.996Z,16.54
2023-04-17T15:44:41.351Z,16.58
2023-04-17T15:47:10.241Z,16.46
2023-04-17T15:49:38.196Z,16.38
2023-04-17T15:52:07.262Z,16.60
2023-04-17T15:54:35.463Z,17.09
2023-04-17T15:57:03.456Z,17.09
2023-04-17T15:59:33.361Z,17.19
2023-04-17T16:02:01.511Z,16.97
2023-04-17T16:04:29.914Z,16.93
2023-04-17T16:06:57.980Z,16.66
2023-04-17T16:09:25.928Z,16.82
2023-04-17T16:11:54.253Z,16.63
2023-04-17T16:14:22.248Z,16.45
2023-04-17T16:16:50.251Z,16.49
2023-04-17T16:19:18.543Z,16.25
2023-04-17T16:21:46.432Z,16.55
2023-04-17T16:24:14.325Z,16.44
2023-04-17T16:26:43.063Z,16.54
2023-04-17T16:29:11.255Z,16.18
2023-04-17T16:31:39.350Z,16.06
2023-04-17T16:34:09.800Z,16.04
2023-04-17T16:36:37.673Z,16.25
2023-04-17T16:39:05.911Z,16.22
2023-04-17T16:41:37.424Z,16.29
2023-04-17T16:44:05.826Z,16.14
2023-04-17T16:46:45.723Z,16.01
2023-04-17T16:49:22.233Z,16.18
2023-04-17T16:51:50.619Z,15.95
2023-04-17T16:54:20.720Z,16.33
2023-04-17T16:56:49.634Z,16.03
2023-04-17T16:59:17.502Z,16.42
2023-04-17T17:01:47.288Z,15.93
2023-04-17T17:04:16.106Z,16.07
2023-04-17T17:06:44.047Z,16.23
2023-04-17T17:09:12.231Z,15.77
2023-04-17T17:11:40.907Z,15.66
2023-04-17T17:14:09.004Z,15.77
2023-04-17T17:16:37.160Z,15.86
2023-04-17T17:19:06.156Z,15.86
2023-04-17T17:21:34.059Z,15.97
2023-04-17T17:24:02.024Z,15.80
2023-04-17T17:26:30.473Z,15.60
2023-04-17T17:28:58.582Z,15.71
2023-04-17T17:31:26.522Z,15.63
2023-04-17T17:33:56.056Z,15.35
2023-04-17T17:36:24.017Z,15.41
2023-04-17T17:38:56.049Z,15.61
2023-04-17T17:41:24.675Z,15.38
2023-04-17T17:43:52.866Z,15.59
2023-04-17T17:46:21.402Z,15.52
2023-04-17T17:48:49.893Z,15.39
2023-04-17T17:51:17.792Z,15.09
2023-04-17T17:53:45.810Z,14.89
2023-04-17T17:56:14.258Z,14.73
2023-04-17T17:58:42.186Z,14.53
2023-04-17T18:01:10.126Z,14.32
2023-04-17T18:03:38.530Z,14.02
2023-04-17T18:06:06.604Z,13.82
2023-04-17T18:08:35.028Z,13.63
2023-04-17T18:11:03.328Z,13.52
2023-04-17T18:13:31.428Z,13.19
2023-04-17T18:15:59.385Z,13.44
2023-04-17T18:18:27.750Z,13.46
2023-04-17T18:20:55.689Z,13.85
2023-04-17T18:23:23.692Z,13.62
2023-04-17T18:26:02.387Z,13.64
2023-04-17T18:28:30.565Z,13.43
2023-04-17T18:30:59.014Z,13.28
2023-04-17T18:33:27.122Z,13.80
2023-04-17T18:35:55.024Z,13.58
2023-04-17T18:38:23.275Z,13.46
2023-04-17T18:40:57.448Z,13.68
2023-04-17T18:43:26.202Z,13.44
2023-04-17T18:45:54.648Z,13.64
2023-04-17T18:48:24.021Z,13.75
2023-04-17T18:50:52.484Z,14.03
2023-04-17T18:53:20.348Z,14.17
2023-04-17T18:55:48.312Z,14.38
2023-04-17T18:58:16.664Z,14.55
2023-04-17T19:00:44.664Z,14.54
2023-04-17T19:03:12.745Z,14.45
2023-04-17T19:05:41.129Z,14.38
2023-04-17T19:08:09.826Z,14.51
2023-04-17T19:10:39.919Z,14.44
2023-04-17T19:13:10.049Z,14.35
2023-04-17T19:15:38.141Z,14.58
2023-04-17T19:18:06.911Z,14.67
2023-04-17T19:20:36.688Z,14.63
2023-04-17T19:23:04.815Z,14.58
2023-04-17T19:25:32.725Z,14.43
2023-04-17T19:28:00.955Z,14.41
2023-04-17T19:30:28.920Z,14.44
2023-04-17T19:32:57.057Z,14.65
2023-04-17T19:35:26.375Z,14.46
2023-04-17T19:37:54.324Z,14.63
2023-04-17T19:40:25.595Z,14.51
2023-04-17T19:42:56.410Z,14.41
2023-04-17T19:45:24.288Z,14.37
2023-04-17T19:47:56.388Z,14.49
2023-04-17T19:50:27.371Z,14.53
2023-04-17T19:52:56.970Z,14.35
2023-04-17T19:55:25.268Z,14.46
2023-04-17T19:57:53.265Z,14.37
2023-04-17T20:00:21.280Z,14.48
2023-04-17T20:02:49.621Z,14.62
2023-04-17T20:05:18.679Z,14.46
2023-04-17T20:07:46.742Z,14.78
2023-04-17T20:10:17.173Z,14.51
2023-04-17T20:12:45.104Z,14.89
2023-04-17T20:15:13.024Z,14.85
2023-04-17T20:17:41.358Z,14.54
2023-04-17T20:20:09.910Z,14.90
2023-04-17T20:22:39.821Z,14.85
2023-04-17T20:25:08.549Z,14.83
2023-04-17T20:27:36.601Z,15.02
2023-04-17T20:30:04.999Z,14.83
2023-04-17T20:32:33.378Z,14.91
2023-04-17T20:35:02.529Z,14.83
2023-04-17T20:37:30.644Z,14.92
2023-04-17T20:39:58.967Z,15.12
2023-04-17T20:42:26.912Z,15.33
2023-04-17T20:44:55.478Z,15.24
2023-04-17T20:47:23.830Z,14.98
2023-04-17T20:49:51.762Z,15.00
2023-04-17T20:52:19.713Z,15.13
2023-04-17T20:54:48.161Z,15.26
2023-04-17T20:57:16.067Z,14.97
2023-04-17T20:59:44.041Z,14.80
2023-04-17T21:02:12.468Z,14.83
2023-04-17T21:04:40.848Z,14.70
2023-04-17T21:07:08.732Z,14.49
2023-04-17T21:09:36.993Z,14.02
2023-04-17T21:12:06.538Z,14.21
2023-04-17T21:14:36.188Z,14.26
2023-04-17T21:17:04.532Z,14.22
2023-04-17T21:19:36.135Z,14.22
2023-04-17T21:22:04.505Z,14.16
2023-04-17T21:24:32.501Z,14.56
2023-04-17T21:27:00.463Z,14.51
2023-04-17T21:29:29.078Z,14.23
2023-04-17T21:31:57.147Z,14.38
2023-04-17T21:34:25.665Z,14.19
2023-04-17T21:36:54.735Z,14.32
2023-04-17T21:39:22.708Z,14.50
2023-04-17T21:41:50.698Z,14.23
2023-04-17T21:44:18.937Z,14.19
2023-04-17T21:46:46.894Z,14.31
2023-04-17T21:49:14.895Z,14.27
2023-04-17T21:51:43.266Z,14.27
2023-04-17T21:54:11.299Z,14.21
2023-04-17T21:56:39.420Z,14.51
2023-04-17T21:59:07.687Z,14.06
2023-04-17T22:01:35.779Z,14.06
2023-04-17T22:04:04.385Z,13.86
2023-04-17T22:06:36.522Z,13.71
2023-04-17T22:09:09.016Z,13.86
2023-04-17T22:11:38.556Z,13.78
2023-04-17T22:14:06.792Z,13.62
2023-04-17T22:16:34.675Z,14.04
2023-04-17T22:19:02.905Z,13.95
2023-04-17T22:21:31.148Z,13.79
2023-04-17T22:23:59.553Z,14.00
2023-04-17T22:26:27.936Z,14.21
2023-04-17T22:28:56.101Z,14.08
2023-04-17T22:31:24.090Z,13.90
2023-04-17T22:33:51.928Z,14.02
2023-04-17T22:36:20.144Z,13.82
2023-04-17T22:38:48.016Z,13.81
2023-04-17T22:41:15.909Z,13.67
2023-04-17T22:43:44.054Z,13.76
2023-04-17T22:46:11.912Z,13.51
2023-04-17T22:48:40.873Z,13.43
2023-04-17T22:51:09.940Z,13.36
2023-04-17T22:53:37.762Z,13.28
2023-04-17T22:56:06.562Z,13.48
2023-04-17T22:58:35.137Z,13.04
2023-04-17T23:01:03.345Z,12.89
2023-04-17T23:03:31.304Z,12.85
2023-04-17T23:05:59.435Z,13.12
2023-04-17T23:08:30.082Z,13.12
2023-04-17T23:10:59.997Z,13.24
2023-04-17T23:13:28.715Z,13.16
2023-04-17T23:15:56.697Z,13.05
2023-04-17T23:18:24.804Z,13.37
2023-04-17T23:20:53.080Z,13.48
2023-04-17T23:23:21.287Z,13.16
2023-04-17T23:25:49.190Z,13.38
2023-04-17T23:28:17.457Z,13.58
2023-04-17T23:30:45.301Z,13.70
2023-04-17T23:33:13.258Z,13.48
2023-04-17T23:35:41.561Z,13.24
2023-04-17T23:38:09.473Z,13.17
2023-04-17T23:40:37.603Z,13.36
2023-04-17T23:43:06.815Z,13.39
2023-04-17T23:45:34.709Z,13.16
2023-04-17T23:48:02.652Z,13.19
2023-04-17T23:50:31.008Z,13.07
2023-04-17T23:52:58.979Z,13.07
2023-04-17T23:55:27.308Z,12.87
2023-04-17T23:57:56.817Z,13.07
